Time;durP1;ratioP1;P1;durP2;ratioP2;P2;SDS_P1;SDS_P2;PMS_P1;PMS_P2;Temp;Humidity;BMP_temperature;BMP_pressure;BME280_temperature;BME280_humidity;BME280_pressure;Samples;Min_cycle;Max_cycle;Signal;HPM_P1;HPM_P2
2023/04/26 00:00:10;;;;;;;8.90;3.85;;;;;;;-145.50;100.00;65435.88;5044834;28;20091;-70
2023/04/26 00:02:37;;;;;;;7.72;3.97;;;;;;;-145.50;100.00;65435.88;5042102;28;20520;-72
2023/04/26 00:05:04;;;;;;;12.77;4.68;;;;;;;-145.50;100.00;65435.88;5035182;28;20049;-70
2023/04/26 00:07:31;;;;;;;9.90;4.15;;;;;;;-145.50;100.00;65435.88;5020425;28;20052;-70
2023/04/26 00:09:58;;;;;;;13.55;4.75;;;;;;;-145.50;100.00;65435.88;5054107;28;20513;-69
2023/04/26 00:12:24;;;;;;;12.73;4.10;;;;;;;-145.50;100.00;65435.88;5028840;28;20049;-71
2023/04/26 00:14:51;;;;;;;8.18;4.20;;;;;;;-145.50;100.00;65435.88;5049183;28;20045;-71
2023/04/26 00:17:18;;;;;;;13.70;4.43;;;;;;;-145.50;100.00;65435.88;5036155;28;20163;-69
2023/04/26 00:19:45;;;;;;;11.05;4.53;;;;;;;-145.50;100.00;65435.88;5031116;28;20144;-70
2023/04/26 00:22:12;;;;;;;9.52;4.25;;;;;;;-145.50;100.00;65435.88;5047338;28;20140;-71
2023/04/26 00:24:38;;;;;;;11.25;4.32;;;;;;;-145.50;100.00;65435.88;5024159;28;20045;-69
2023/04/26 00:27:08;;;;;;;8.35;4.50;;;;;;;-145.50;100.00;65435.88;5030021;28;20053;-70
2023/04/26 00:29:37;;;;;;;11.25;4.60;;;;;;;-145.50;100.00;65435.88;5023914;28;20071;-71
2023/04/26 00:32:04;;;;;;;13.90;4.65;;;;;;;-145.50;100.00;65435.88;5049274;28;20078;-72
2023/04/26 00:34:35;;;;;;;9.77;4.50;;;;;;;-145.50;100.00;65435.88;5054838;28;21273;-70
2023/04/26 00:37:02;;;;;;;11.02;4.88;;;;;;;-145.50;100.00;65435.88;5050472;28;20628;-70
2023/04/26 00:39:28;;;;;;;12.32;4.70;;;;;;;-145.50;100.00;65435.88;5048406;28;20041;-70
2023/04/26 00:41:55;;;;;;;9.38;4.60;;;;;;;-145.50;100.00;65435.88;5042303;28;20049;-70
2023/04/26 00:44:22;;;;;;;10.55;4.50;;;;;;;-145.50;100.00;65435.88;5054906;28;20520;-71
2023/04/26 00:46:51;;;;;;;12.48;4.13;;;;;;;-145.50;100.00;65435.88;5034921;28;20055;-72
2023/04/26 00:49:21;;;;;;;10.15;4.00;;;;;;;-145.50;100.00;65435.88;5043848;28;20048;-70
2023/04/26 00:51:48;;;;;;;6.60;3.97;;;;;;;-145.50;100.00;65435.88;5054239;28;20169;-71
2023/04/26 00:54:15;;;;;;;11.70;3.92;;;;;;;-145.50;100.00;65435.88;5039429;28;20136;-72
2023/04/26 00:56:42;;;;;;;10.45;4.32;;;;;;;-145.50;100.00;65435.88;5071698;28;20075;-73
2023/04/26 00:59:08;;;;;;;10.73;4.30;;;;;;;-145.50;100.00;65435.88;5060478;28;20068;-70
2023/04/26 01:01:35;;;;;;;11.52;4.63;;;;;;;-145.50;100.00;65435.88;5061494;28;20049;-70
2023/04/26 01:04:02;;;;;;;11.52;4.20;;;;;;;-145.50;100.00;65435.88;5049380;28;20110;-71
2023/04/26 01:06:33;;;;;;;9.57;4.13;;;;;;;-145.50;100.00;65435.88;5060092;28;20056;-69
2023/04/26 01:09:07;;;;;;;12.00;4.78;;;;;;;-145.50;100.00;65435.88;5037988;28;20049;-70
2023/04/26 01:11:35;;;;;;;13.45;4.50;;;;;;;-145.50;100.00;65435.88;5045397;28;20148;-70
2023/04/26 01:14:03;;;;;;;10.23;4.15;;;;;;;-145.50;100.00;65435.88;5044069;28;20789;-70
2023/04/26 01:16:30;;;;;;;7.55;4.00;;;;;;;-145.50;100.00;65435.88;5038944;28;20067;-71
2023/04/26 01:18:56;;;;;;;12.40;4.15;;;;;;;-145.50;100.00;65435.88;5051059;28;20725;-70
2023/04/26 01:21:23;;;;;;;11.43;4.18;;;;;;;-145.50;100.00;65435.88;5044334;28;20049;-70
2023/04/26 01:23:51;;;;;;;10.15;4.63;;;;;;;-145.50;100.00;65435.88;5039326;28;20661;-70
2023/04/26 01:26:18;;;;;;;10.50;4.40;;;;;;;-145.50;100.00;65435.88;5050129;28;20049;-72
2023/04/26 01:28:45;;;;;;;9.63;4.00;;;;;;;-145.50;100.00;65435.88;5006456;28;20060;-71
2023/04/26 01:31:12;;;;;;;10.23;4.70;;;;;;;-145.50;100.00;65435.88;5051532;28;20044;-71
2023/04/26 01:33:39;;;;;;;11.75;4.70;;;;;;;-145.50;100.00;65435.88;5045075;28;20083;-70
2023/04/26 01:36:12;;;;;;;12.88;5.13;;;;;;;-145.50;100.00;65435.88;5062470;28;20049;-71
2023/04/26 01:38:38;;;;;;;10.43;4.20;;;;;;;-145.50;100.00;65435.88;5031556;28;20394;-71
2023/04/26 01:41:05;;;;;;;8.98;4.53;;;;;;;-145.50;100.00;65435.88;5048294;28;20057;-71
2023/04/26 01:43:31;;;;;;;10.80;4.55;;;;;;;-145.50;100.00;65435.88;5058517;28;20097;-70
2023/04/26 01:45:58;;;;;;;8.65;4.50;;;;;;;-145.50;100.00;65435.88;5045446;28;20073;-70
2023/04/26 01:48:24;;;;;;;9.77;4.13;;;;;;;-145.50;100.00;65435.88;5034536;28;20060;-70
2023/04/26 01:50:51;;;;;;;11.43;4.78;;;;;;;-145.50;100.00;65435.88;5073559;28;20088;-73
2023/04/26 01:53:18;;;;;;;9.27;4.32;;;;;;;-145.50;100.00;65435.88;5081440;28;20052;-72
2023/04/26 01:55:44;;;;;;;14.30;4.53;;;;;;;-145.50;100.00;65435.88;5061050;28;20029;-73
2023/04/26 01:58:11;;;;;;;9.88;4.72;;;;;;;-145.50;100.00;65435.88;5056837;28;20408;-70
2023/04/26 02:00:37;;;;;;;10.52;4.72;;;;;;;-145.50;100.00;65435.88;5059288;28;20083;-70
2023/04/26 02:03:04;;;;;;;13.63;5.18;;;;;;;-145.50;100.00;65435.88;5032623;28;20083;-71
2023/04/26 02:05:31;;;;;;;8.52;5.05;;;;;;;-145.50;100.00;65435.88;5036858;28;20087;-70
2023/04/26 02:07:57;;;;;;;11.77;5.28;;;;;;;-145.50;100.00;65435.88;5025324;28;20100;-70
2023/04/26 02:10:24;;;;;;;10.25;4.90;;;;;;;-145.50;100.00;65435.88;5024668;28;20053;-71
2023/04/26 02:12:50;;;;;;;10.77;5.20;;;;;;;-145.50;100.00;65435.88;5042556;28;20048;-70
2023/04/26 02:15:17;;;;;;;11.35;4.85;;;;;;;-145.50;100.00;65435.88;5061734;28;20084;-71
2023/04/26 02:17:43;;;;;;;12.05;4.68;;;;;;;-145.50;100.00;65435.88;5059879;28;20064;-70
2023/04/26 02:20:10;;;;;;;11.57;5.55;;;;;;;-145.50;100.00;65435.88;5042741;28;20052;-72
2023/04/26 02:22:37;;;;;;;8.43;4.72;;;;;;;-145.50;100.00;65435.88;5056795;28;20068;-71
2023/04/26 02:25:04;;;;;;;14.25;4.97;;;;;;;-145.50;100.00;65435.88;5036232;28;20060;-72
2023/04/26 02:27:31;;;;;;;8.93;5.07;;;;;;;-145.50;100.00;65435.88;5040961;28;20049;-71
2023/04/26 02:29:58;;;;;;;9.25;4.65;;;;;;;-145.50;100.00;65435.88;5031441;28;20057;-70
2023/04/26 02:32:25;;;;;;;12.18;5.43;;;;;;;-145.50;100.00;65435.88;5057146;28;20076;-71
2023/04/26 02:34:51;;;;;;;12.52;4.63;;;;;;;-145.50;100.00;65435.88;5059121;28;20056;-70
2023/04/26 02:37:18;;;;;;;14.15;5.43;;;;;;;-145.50;100.00;65435.88;5039283;28;20127;-70
2023/04/26 02:39:49;;;;;;;14.02;6.32;;;;;;;-145.50;100.00;65435.88;5048274;28;20048;-70
2023/04/26 02:42:16;;;;;;;16.92;6.65;;;;;;;-145.50;100.00;65435.88;5024932;28;20168;-72
2023/04/26 02:44:42;;;;;;;13.65;6.20;;;;;;;-145.50;100.00;65435.88;5049501;28;20045;-72
2023/04/26 02:47:09;;;;;;;16.17;7.22;;;;;;;-145.50;100.00;65435.88;5045245;28;20048;-72
2023/04/26 02:49:36;;;;;;;14.52;6.38;;;;;;;-145.50;100.00;65435.88;5036097;28;20056;-70
2023/04/26 02:52:04;;;;;;;17.05;6.90;;;;;;;-145.50;100.00;65435.88;5047312;28;20524;-71
2023/04/26 02:54:31;;;;;;;12.80;6.00;;;;;;;-145.50;100.00;65435.88;5040245;28;20053;-71
2023/04/26 02:56:57;;;;;;;17.10;7.53;;;;;;;-145.50;100.00;65435.88;5050363;28;20102;-74
2023/04/26 02:59:24;;;;;;;11.93;6.70;;;;;;;-145.50;100.00;65435.88;5068351;28;20048;-73
2023/04/26 03:01:51;;;;;;;13.25;6.15;;;;;;;-145.50;100.00;65435.88;5068836;28;20052;-74
2023/04/26 03:04:18;;;;;;;16.92;6.80;;;;;;;-145.50;100.00;65435.88;5041881;28;20033;-73
2023/04/26 03:06:45;;;;;;;13.23;6.05;;;;;;;-145.50;100.00;65435.88;5049041;28;20044;-74
2023/04/26 03:09:11;;;;;;;11.23;6.22;;;;;;;-145.50;100.00;65435.88;5051627;28;20052;-73
2023/04/26 03:11:38;;;;;;;13.77;6.65;;;;;;;-145.50;100.00;65435.88;5022700;28;20042;-74
2023/04/26 03:14:04;;;;;;;17.02;8.40;;;;;;;-145.50;100.00;65435.88;5044848;28;20052;-74
2023/04/26 03:16:30;;;;;;;21.90;8.27;;;;;;;-145.50;100.00;65435.88;5038888;28;20049;-74
2023/04/26 03:18:57;;;;;;;14.30;7.40;;;;;;;-145.50;100.00;65435.88;5044881;28;20726;-73
2023/04/26 03:21:23;;;;;;;16.90;7.93;;;;;;;-145.50;100.00;65435.88;5042279;28;20359;-74
2023/04/26 03:23:50;;;;;;;18.00;8.25;;;;;;;-145.50;100.00;65435.88;5044178;28;20048;-74
2023/04/26 03:26:16;;;;;;;14.85;7.97;;;;;;;-145.50;100.00;65435.88;5032390;28;20052;-73
2023/04/26 03:28:43;;;;;;;18.15;7.68;;;;;;;-145.50;100.00;65435.88;5023384;28;20135;-74
2023/04/26 03:31:09;;;;;;;17.27;8.63;;;;;;;-145.50;100.00;65435.88;5042808;28;20053;-74
2023/04/26 03:33:35;;;;;;;17.48;8.35;;;;;;;-145.50;100.00;65435.88;5037113;28;20057;-74
2023/04/26 03:36:02;;;;;;;18.15;8.18;;;;;;;-145.50;100.00;65435.88;5048884;28;20055;-74
2023/04/26 03:38:29;;;;;;;19.92;9.32;;;;;;;-145.50;100.00;65435.88;5027045;28;20444;-73
2023/04/26 03:40:55;;;;;;;17.38;8.80;;;;;;;-145.50;100.00;65435.88;5044951;28;21974;-74
2023/04/26 03:43:22;;;;;;;18.13;8.85;;;;;;;-145.50;100.00;65435.88;5024331;28;20045;-74
2023/04/26 03:45:49;;;;;;;19.77;8.90;;;;;;;-145.50;100.00;65435.88;5049759;28;20057;-74
2023/04/26 03:48:16;;;;;;;19.75;8.90;;;;;;;-145.50;100.00;65435.88;5047873;28;20102;-74
2023/04/26 03:50:43;;;;;;;18.60;8.90;;;;;;;-145.50;100.00;65435.88;5023747;28;20052;-73
2023/04/26 03:53:10;;;;;;;17.05;8.88;;;;;;;-145.50;100.00;65435.88;5047937;28;20128;-74
2023/04/26 03:55:37;;;;;;;19.08;8.23;;;;;;;-145.50;100.00;65435.88;5037745;28;20440;-74
2023/04/26 03:58:06;;;;;;;20.55;8.95;;;;;;;-145.50;100.00;65435.88;5043059;28;20060;-74
2023/04/26 04:00:37;;;;;;;19.10;8.38;;;;;;;-145.50;100.00;65435.88;5031945;28;20425;-74
2023/04/26 04:03:05;;;;;;;16.58;8.15;;;;;;;-145.50;100.00;65435.88;5024105;28;20425;-74
2023/04/26 04:05:32;;;;;;;;;;;;;;;-145.50;100.00;65435.88;5030838;28;20053;-74
2023/04/26 04:07:59;;;;;;;19.77;8.80;;;;;;;-145.50;100.00;65435.88;5041010;28;20325;-74
2023/04/26 04:10:25;;;;;;;20.27;9.63;;;;;;;-145.50;100.00;65435.88;5043027;28;20095;-73
2023/04/26 04:12:52;;;;;;;20.85;9.60;;;;;;;-145.50;100.00;65435.88;5037932;28;20625;-74
2023/04/26 04:15:20;;;;;;;23.30;10.45;;;;;;;-145.50;100.00;65435.88;5047776;28;20052;-74
2023/04/26 04:17:46;;;;;;;20.92;9.77;;;;;;;-145.50;100.00;65435.88;5047612;28;20091;-74
2023/04/26 04:20:13;;;;;;;26.63;10.30;;;;;;;-145.50;100.00;65435.88;5023059;28;20056;-73
2023/04/26 04:22:39;;;;;;;20.90;9.93;;;;;;;-145.50;100.00;65435.88;5045836;28;20037;-74
2023/04/26 04:25:08;;;;;;;16.95;9.27;;;;;;;-145.50;100.00;65435.88;5034214;28;20486;-73
2023/04/26 04:27:37;;;;;;;20.65;10.15;;;;;;;-145.50;100.00;65435.88;5047498;28;20045;-74
2023/04/26 04:30:06;;;;;;;22.73;10.20;;;;;;;-145.50;100.00;65435.88;5045978;28;20056;-74
2023/04/26 04:32:33;;;;;;;20.92;9.90;;;;;;;-145.50;100.00;65435.88;5032199;28;20041;-74
2023/04/26 04:34:59;;;;;;;18.98;10.63;;;;;;;-145.50;100.00;65435.88;5051948;28;20048;-74
2023/04/26 04:37:27;;;;;;;18.08;9.93;;;;;;;-145.50;100.00;65435.88;5043637;28;20121;-73
2023/04/26 04:39:54;;;;;;;18.85;9.35;;;;;;;-145.50;100.00;65435.88;5053234;28;20079;-74
2023/04/26 04:42:21;;;;;;;18.20;9.65;;;;;;;-145.50;100.00;65435.88;5043499;28;20057;-74
2023/04/26 04:44:48;;;;;;;23.15;10.52;;;;;;;-145.50;100.00;65435.88;5050753;28;20059;-73
2023/04/26 04:47:16;;;;;;;20.70;10.13;;;;;;;-145.50;100.00;65435.88;5041983;28;20107;-74
2023/04/26 04:49:43;;;;;;;20.52;10.05;;;;;;;-145.50;100.00;65435.88;5041177;28;20528;-73
2023/04/26 04:52:09;;;;;;;19.48;9.38;;;;;;;-145.50;100.00;65435.88;5051632;28;20074;-74
2023/04/26 04:54:36;;;;;;;24.65;10.68;;;;;;;-145.50;100.00;65435.88;5052190;28;20432;-74
2023/04/26 04:57:02;;;;;;;20.50;9.93;;;;;;;-145.50;100.00;65435.88;5051028;28;20044;-74
2023/04/26 04:59:29;;;;;;;22.85;9.02;;;;;;;-145.50;100.00;65435.88;5043723;28;20049;-74
2023/04/26 05:01:56;;;;;;;24.75;11.45;;;;;;;-145.50;100.00;65435.88;5045740;28;20076;-74
2023/04/26 05:04:22;;;;;;;25.42;11.15;;;;;;;-145.50;100.00;65435.88;5043116;28;20509;-73
2023/04/26 05:06:50;;;;;;;20.75;9.85;;;;;;;-145.50;100.00;65435.88;5047740;28;20053;-73
2023/04/26 05:09:16;;;;;;;21.85;11.15;;;;;;;-145.50;100.00;65435.88;5032731;28;20448;-73
2023/04/26 05:11:43;;;;;;;20.77;9.85;;;;;;;-145.50;100.00;65435.88;5043889;28;20044;-74
2023/04/26 05:14:10;;;;;;;22.25;10.27;;;;;;;-145.50;100.00;65435.88;5050713;28;20078;-74
2023/04/26 05:16:37;;;;;;;20.80;10.25;;;;;;;-145.50;100.00;65435.88;5040123;28;20079;-73
2023/04/26 05:19:04;;;;;;;23.08;10.23;;;;;;;-145.50;100.00;65435.88;5046092;28;20106;-74
2023/04/26 05:21:34;;;;;;;18.98;10.68;;;;;;;-145.50;100.00;65435.88;5051283;28;20051;-74
2023/04/26 05:24:00;;;;;;;18.90;9.40;;;;;;;-145.50;100.00;65435.88;5043598;28;20080;-75
2023/04/26 05:26:26;;;;;;;17.33;9.13;;;;;;;-145.50;100.00;65435.88;5049849;28;20545;-74
2023/04/26 05:28:53;;;;;;;17.40;9.20;;;;;;;-145.50;100.00;65435.88;5025927;28;20048;-74
2023/04/26 05:31:20;;;;;;;21.23;9.77;;;;;;;-145.50;100.00;65435.88;5044023;28;20097;-73
2023/04/26 05:33:46;;;;;;;19.00;9.23;;;;;;;-145.50;100.00;65435.88;5040414;28;20053;-74
2023/04/26 05:36:13;;;;;;;19.27;9.25;;;;;;;-145.50;100.00;65435.88;5033667;28;20048;-73
2023/04/26 05:38:40;;;;;;;20.75;9.20;;;;;;;-145.50;100.00;65435.88;5049739;28;20445;-74
2023/04/26 05:41:06;;;;;;;18.45;9.60;;;;;;;-145.50;100.00;65435.88;5027776;28;20053;-74
2023/04/26 05:43:33;;;;;;;19.13;9.43;;;;;;;-145.50;100.00;65435.88;5046414;28;20049;-74
2023/04/26 05:46:00;;;;;;;15.13;8.77;;;;;;;-145.50;100.00;65435.88;5038643;28;20051;-73
2023/04/26 05:48:28;;;;;;;18.33;8.27;;;;;;;-145.50;100.00;65435.88;5030692;28;20375;-74
2023/04/26 05:50:55;;;;;;;16.27;8.70;;;;;;;-145.50;100.00;65435.88;5035533;28;20184;-74
2023/04/26 05:53:22;;;;;;;20.58;8.70;;;;;;;-145.50;100.00;65435.88;5050193;28;20561;-74
2023/04/26 05:55:49;;;;;;;18.08;8.65;;;;;;;-145.50;100.00;65435.88;5052628;28;20052;-74
2023/04/26 05:58:15;;;;;;;25.00;8.75;;;;;;;-145.50;100.00;65435.88;5040041;28;20112;-74
2023/04/26 06:00:42;;;;;;;12.82;7.15;;;;;;;-145.50;100.00;65435.88;5045542;28;20067;-74
2023/04/26 06:03:08;;;;;;;16.98;8.25;;;;;;;-145.50;100.00;65435.88;5042915;28;20088;-74
2023/04/26 06:05:37;;;;;;;18.98;8.90;;;;;;;-145.50;100.00;65435.88;5032026;28;20079;-73
2023/04/26 06:08:04;;;;;;;14.77;7.47;;;;;;;-145.50;100.00;65435.88;5039071;28;20473;-74
2023/04/26 06:10:30;;;;;;;13.80;7.15;;;;;;;-145.50;100.00;65435.88;5049403;28;20055;-74
2023/04/26 06:12:57;;;;;;;14.27;7.28;;;;;;;-145.50;100.00;65435.88;5044543;28;20056;-73
2023/04/26 06:15:23;;;;;;;16.85;7.75;;;;;;;-145.50;100.00;65435.88;5037248;28;20144;-75
2023/04/26 06:17:50;;;;;;;14.27;7.53;;;;;;;-145.50;100.00;65435.88;5050019;28;20044;-74
2023/04/26 06:20:17;;;;;;;13.98;7.05;;;;;;;-145.50;100.00;65435.88;5042544;28;20068;-74
2023/04/26 06:22:43;;;;;;;17.13;7.22;;;;;;;-145.50;100.00;65435.88;5048652;28;20048;-73
2023/04/26 06:25:10;;;;;;;17.38;6.68;;;;;;;-145.50;100.00;65435.88;5044112;28;20099;-75
2023/04/26 06:27:38;;;;;;;15.43;7.05;;;;;;;-145.50;100.00;65435.88;5044838;28;20056;-74
2023/04/26 06:30:06;;;;;;;21.50;7.13;;;;;;;-145.50;100.00;65435.88;5032282;28;20080;-74
2023/04/26 06:32:33;;;;;;;19.83;7.70;;;;;;;-145.50;100.00;65435.88;5042212;28;20053;-75
2023/04/26 06:35:00;;;;;;;12.55;6.70;;;;;;;-145.50;100.00;65435.88;5049697;28;20049;-74
2023/04/26 06:37:27;;;;;;;12.63;5.53;;;;;;;-145.50;100.00;65435.88;5042407;28;20370;-75
2023/04/26 06:39:53;;;;;;;12.52;5.47;;;;;;;-145.50;100.00;65435.88;5028292;28;20049;-74
2023/04/26 06:42:21;;;;;;;12.27;5.50;;;;;;;-145.50;100.00;65435.88;5019038;28;20041;-75
2023/04/26 06:44:48;;;;;;;11.25;5.53;;;;;;;-145.50;100.00;65435.88;5049155;28;20117;-74
2023/04/26 06:47:14;;;;;;;12.60;6.05;;;;;;;-145.50;100.00;65435.88;5048923;28;20124;-74
2023/04/26 06:49:41;;;;;;;9.38;5.22;;;;;;;-145.50;100.00;65435.88;5029969;28;20482;-74
2023/04/26 06:52:07;;;;;;;16.50;5.93;;;;;;;-145.50;100.00;65435.88;5048390;28;20096;-74
2023/04/26 06:54:35;;;;;;;16.05;5.30;;;;;;;-145.50;100.00;65435.88;5037487;28;20057;-72
2023/04/26 06:57:15;;;;;;;15.48;5.40;;;;;;;-145.50;100.00;65435.88;5048120;28;20072;-73
2023/04/26 06:59:41;;;;;;;13.60;5.95;;;;;;;-145.50;100.00;65435.88;5035358;28;20049;-72
2023/04/26 07:02:08;;;;;;;10.30;5.53;;;;;;;-145.50;100.00;65435.88;5048094;28;20429;-74
2023/04/26 07:04:35;;;;;;;12.25;5.30;;;;;;;-145.50;100.00;65435.88;5048165;28;20112;-73
2023/04/26 07:07:02;;;;;;;12.52;4.95;;;;;;;-145.50;100.00;65435.88;5021669;28;20077;-73
2023/04/26 07:09:28;;;;;;;14.05;4.90;;;;;;;-145.50;100.00;65435.88;5026191;28;20460;-73
2023/04/26 07:11:55;;;;;;;10.35;4.30;;;;;;;-145.50;100.00;65435.88;5042682;28;20473;-74
2023/04/26 07:14:23;;;;;;;11.45;4.82;;;;;;;-145.50;100.00;65435.88;5048517;28;20408;-73
2023/04/26 07:16:50;;;;;;;12.02;3.55;;;;;;;-145.50;100.00;65435.88;5043728;28;20053;-73
2023/04/26 07:19:16;;;;;;;10.88;4.20;;;;;;;-145.50;100.00;65435.88;5048116;28;20084;-74
2023/04/26 07:21:43;;;;;;;11.05;4.25;;;;;;;-145.50;100.00;65435.88;5042971;28;20065;-73
2023/04/26 07:24:09;;;;;;;13.93;4.20;;;;;;;-145.50;100.00;65435.88;5037243;28;20076;-73
2023/04/26 07:26:36;;;;;;;10.88;3.97;;;;;;;-145.50;100.00;65435.88;5031219;28;20056;-74
2023/04/26 07:29:02;;;;;;;10.45;4.25;;;;;;;-145.50;100.00;65435.88;5044682;28;20416;-74
2023/04/26 07:31:30;;;;;;;10.02;4.00;;;;;;;-145.50;100.00;65435.88;5048114;28;20045;-73
2023/04/26 07:33:57;;;;;;;12.00;3.67;;;;;;;-145.50;100.00;65435.88;5043664;28;20045;-73
2023/04/26 07:36:26;;;;;;;17.10;3.90;;;;;;;-145.50;100.00;65435.88;5042309;28;20052;-73
2023/04/26 07:38:53;;;;;;;9.65;3.53;;;;;;;-145.50;100.00;65435.88;5039870;28;20055;-73
2023/04/26 07:41:19;;;;;;;9.40;3.55;;;;;;;-145.50;100.00;65435.88;5041060;28;20409;-73
2023/04/26 07:43:46;;;;;;;8.32;2.95;;;;;;;-145.50;100.00;65435.88;5048612;28;20044;-73
2023/04/26 07:46:13;;;;;;;9.52;2.47;;;;;;;-145.50;100.00;65435.88;5041354;28;20061;-73
2023/04/26 07:48:39;;;;;;;9.40;2.75;;;;;;;-145.50;100.00;65435.88;5030116;28;20485;-73
2023/04/26 07:51:08;;;;;;;9.63;2.20;;;;;;;-145.50;100.00;65435.88;5047746;28;20080;-74
2023/04/26 07:53:34;;;;;;;7.22;2.20;;;;;;;-145.50;100.00;65435.88;5039877;28;20063;-74
2023/04/26 07:56:04;;;;;;;10.52;2.05;;;;;;;-145.50;100.00;65435.88;5047845;28;20482;-74
2023/04/26 07:58:31;;;;;;;6.68;1.88;;;;;;;-145.50;100.00;65435.88;5024689;28;20049;-74
2023/04/26 08:00:59;;;;;;;6.90;1.98;;;;;;;-145.50;100.00;65435.88;5047584;28;20096;-74
2023/04/26 08:03:28;;;;;;;11.32;2.30;;;;;;;-145.50;100.00;65435.88;5036477;28;20053;-74
2023/04/26 08:05:57;;;;;;;5.45;2.20;;;;;;;-145.50;100.00;65435.88;5043347;28;20061;-74
2023/04/26 08:08:25;;;;;;;;;;;;;;;-145.50;100.00;65435.88;5043116;28;20056;-74
2023/04/26 08:10:52;;;;;;;6.60;2.40;;;;;;;-145.50;100.00;65435.88;5047541;28;19931;-75
2023/04/26 08:13:19;;;;;;;5.13;2.20;;;;;;;-145.50;100.00;65435.88;5021517;28;20294;-73
2023/04/26 08:15:46;;;;;;;6.55;2.47;;;;;;;-145.50;100.00;65435.88;5041661;28;20559;-74
2023/04/26 08:18:12;;;;;;;8.55;2.50;;;;;;;-145.50;100.00;65435.88;5042488;28;20067;-74
2023/04/26 08:20:40;;;;;;;9.10;2.13;;;;;;;-145.50;100.00;65435.88;5037812;28;20121;-75
2023/04/26 08:23:06;;;;;;;6.47;2.08;;;;;;;-145.50;100.00;65435.88;5047737;28;20037;-74
2023/04/26 08:25:33;;;;;;;9.32;2.17;;;;;;;-145.50;100.00;65435.88;5031973;28;20133;-73
2023/04/26 08:28:00;;;;;;;6.25;2.20;;;;;;;-145.50;100.00;65435.88;5046708;28;20041;-74
2023/04/26 08:30:27;;;;;;;6.95;2.30;;;;;;;-145.50;100.00;65435.88;5045185;28;20475;-74
2023/04/26 08:32:53;;;;;;;5.47;2.30;;;;;;;-145.50;100.00;65435.88;5016864;28;20052;-74
2023/04/26 08:35:21;;;;;;;5.88;2.00;;;;;;;-145.50;100.00;65435.88;5047081;28;20049;-74
2023/04/26 08:37:47;;;;;;;7.93;2.58;;;;;;;-145.50;100.00;65435.88;5039883;28;20057;-74
2023/04/26 08:40:21;;;;;;;6.22;2.28;;;;;;;-145.50;100.00;65435.88;5048503;28;20724;-75
2023/04/26 08:42:47;;;;;;;9.15;2.22;;;;;;;-145.50;100.00;65435.88;5042637;28;20099;-74
2023/04/26 08:45:15;;;;;;;13.38;2.38;;;;;;;-145.50;100.00;65435.88;5037639;28;20069;-74
2023/04/26 08:47:48;;;;;;;2.42;1.70;;;;;;;-145.50;100.00;65435.88;5050792;28;20110;-74
2023/04/26 08:50:20;;;;;;;9.68;2.78;;;;;;;-145.50;100.00;65435.88;5023949;28;20057;-74
2023/04/26 08:52:49;;;;;;;4.85;1.90;;;;;;;-145.50;100.00;65435.88;5042285;28;20057;-73
2023/04/26 08:55:17;;;;;;;5.50;2.50;;;;;;;-145.50;100.00;65435.88;5042567;28;20527;-72
2023/04/26 08:57:46;;;;;;;5.90;1.90;;;;;;;-145.50;100.00;65435.88;5048801;28;20076;-72
2023/04/26 09:00:14;;;;;;;8.45;2.10;;;;;;;-145.50;100.00;65435.88;5040836;28;20108;-73
2023/04/26 09:02:50;;;;;;;6.25;2.00;;;;;;;-145.50;100.00;65435.88;5045346;28;20428;-72
2023/04/26 09:05:22;;;;;;;8.10;2.20;;;;;;;-145.50;100.00;65435.88;5053458;28;20080;-74
2023/04/26 09:07:50;;;;;;;8.05;3.25;;;;;;;-145.50;100.00;65435.88;5048810;28;20148;-72
2023/04/26 09:10:21;;;;;;;5.70;2.20;;;;;;;-145.50;100.00;65435.88;5032902;28;20052;-72
2023/04/26 09:12:52;;;;;;;6.18;1.85;;;;;;;-145.50;100.00;65435.88;5040552;28;20136;-72
2023/04/26 09:15:23;;;;;;;6.03;1.60;;;;;;;-145.50;100.00;65435.88;5047165;28;20060;-72
2023/04/26 09:17:50;;;;;;;3.72;1.60;;;;;;;-145.50;100.00;65435.88;5046303;28;20111;-74
2023/04/26 09:20:20;;;;;;;7.10;1.92;;;;;;;-145.50;100.00;65435.88;5051264;28;20088;-74
2023/04/26 09:22:48;;;;;;;5.65;1.73;;;;;;;-145.50;100.00;65435.88;5053145;28;20048;-72
2023/04/26 09:25:17;;;;;;;4.70;1.70;;;;;;;-145.50;100.00;65435.88;5028000;28;20518;-72
2023/04/26 09:27:43;;;;;;;7.07;2.30;;;;;;;-145.50;100.00;65435.88;5026929;28;20045;-72
2023/04/26 09:30:11;;;;;;;7.35;2.08;;;;;;;-145.50;100.00;65435.88;5043384;28;20148;-73
2023/04/26 09:32:47;;;;;;;8.30;2.10;;;;;;;-145.50;100.00;65435.88;5034968;28;20081;-75
2023/04/26 09:35:32;;;;;;;6.35;1.90;;;;;;;-145.50;100.00;65435.88;5044670;28;20294;-75
2023/04/26 09:38:07;;;;;;;6.93;2.28;;;;;;;-145.50;100.00;65435.88;5026125;28;20053;-72
2023/04/26 09:40:39;;;;;;;5.18;1.88;;;;;;;-145.50;100.00;65435.88;5041075;28;20474;-72
2023/04/26 09:43:06;;;;;;;6.18;1.83;;;;;;;-145.50;100.00;65435.88;5045070;28;20043;-72
2023/04/26 09:45:52;;;;;;;5.63;2.03;;;;;;;-145.50;100.00;65435.88;5053558;28;20103;-73
2023/04/26 09:48:30;;;;;;;4.90;2.00;;;;;;;-145.50;100.00;65435.88;5043467;28;20045;-73
2023/04/26 09:50:58;;;;;;;7.68;2.25;;;;;;;-145.50;100.00;65435.88;5050987;28;20060;-72
2023/04/26 09:53:29;;;;;;;4.30;2.05;;;;;;;-145.50;100.00;65435.88;5039785;28;20049;-73
2023/04/26 09:56:08;;;;;;;8.15;2.70;;;;;;;-145.50;100.00;65435.88;5044158;28;20057;-73
2023/04/26 09:58:35;;;;;;;;;;;;;;;-145.50;100.00;65435.88;5043664;28;20432;-73
2023/04/26 10:01:04;;;;;;;4.10;1.63;;;;;;;-145.50;100.00;65435.88;5049897;28;20003;-73
2023/04/26 10:03:33;;;;;;;7.25;2.33;;;;;;;-145.50;100.00;65435.88;5042521;28;20063;-72
2023/04/26 10:06:00;;;;;;;6.65;1.80;;;;;;;-145.50;100.00;65435.88;5032018;28;20057;-73
2023/04/26 10:08:26;;;;;;;7.63;2.20;;;;;;;-145.50;100.00;65435.88;5043628;28;20691;-72
2023/04/26 10:10:54;;;;;;;5.45;1.90;;;;;;;-145.50;100.00;65435.88;5022717;28;20106;-73
2023/04/26 10:13:21;;;;;;;5.40;1.88;;;;;;;-145.50;100.00;65435.88;5049232;28;20057;-73
2023/04/26 10:15:47;;;;;;;6.72;2.08;;;;;;;-145.50;100.00;65435.88;5044327;28;20099;-72
2023/04/26 10:18:14;;;;;;;6.20;2.47;;;;;;;-145.50;100.00;65435.88;5050183;28;20053;-72
2023/04/26 10:20:46;;;;;;;3.70;2.00;;;;;;;-145.50;100.00;65435.88;5039954;28;20253;-72
2023/04/26 10:23:22;;;;;;;4.72;2.08;;;;;;;-145.50;100.00;65435.88;5045070;28;20056;-72
2023/04/26 10:25:48;;;;;;;5.00;2.42;;;;;;;-145.50;100.00;65435.88;5030667;28;20059;-72
2023/04/26 10:28:16;;;;;;;2.75;1.80;;;;;;;-145.50;100.00;65435.88;5042547;28;20049;-72
2023/04/26 10:30:59;;;;;;;7.93;2.42;;;;;;;-145.50;100.00;65435.88;5048719;28;20056;-72
2023/04/26 10:33:26;;;;;;;4.90;2.38;;;;;;;-145.50;100.00;65435.88;5042527;28;20053;-73
2023/04/26 10:36:00;;;;;;;4.97;2.17;;;;;;;-145.50;100.00;65435.88;5027085;28;20128;-72
2023/04/26 10:38:26;;;;;;;7.68;2.45;;;;;;;-145.50;100.00;65435.88;5039837;28;20061;-72
2023/04/26 10:40:53;;;;;;;7.78;2.72;;;;;;;-145.50;100.00;65435.88;5032217;28;20072;-72
2023/04/26 10:43:27;;;;;;;6.82;2.58;;;;;;;-145.50;100.00;65435.88;5042602;28;20541;-73
2023/04/26 10:45:55;;;;;;;5.50;2.63;;;;;;;-145.50;100.00;65435.88;5049085;28;20102;-72
2023/04/26 10:48:30;;;;;;;4.03;2.47;;;;;;;-145.50;100.00;65435.88;5045016;28;20057;-72
2023/04/26 10:51:11;;;;;;;7.05;2.80;;;;;;;-145.50;100.00;65435.88;5021454;28;20053;-73
2023/04/26 10:53:44;;;;;;;4.75;2.53;;;;;;;-145.50;100.00;65435.88;5035859;28;20111;-73
2023/04/26 10:56:22;;;;;;;5.10;2.33;;;;;;;-145.50;100.00;65435.88;5043280;28;20135;-72
2023/04/26 10:59:06;;;;;;;4.70;2.20;;;;;;;-145.50;100.00;65435.88;5049349;28;20049;-72
2023/04/26 11:01:52;;;;;;;6.93;2.42;;;;;;;-145.50;100.00;65435.88;5033550;28;20379;-71
2023/04/26 11:04:19;;;;;;;4.50;2.33;;;;;;;-145.50;100.00;65435.88;5044502;28;20665;-71
2023/04/26 11:06:51;;;;;;;8.32;2.40;;;;;;;-145.50;100.00;65435.88;5046322;28;20485;-72